createdAt,value
2018-07-22T03:17:13.241Z,99.99
2018-07-22T03:18:13.224Z,99.99
2018-07-22T03:19:13.262Z,99.99
2018-07-22T03:20:13.240Z,99.99
2018-07-22T03:21:13.376Z,99.99
2018-07-22T03:22:13.213Z,99.99
2018-07-22T03:23:13.203Z,99.99
2018-07-22T03:24:13.212Z,99.99
2018-07-22T03:25:13.202Z,99.99
2018-07-22T03:26:13.209Z,99.99
2018-07-22T03:27:13.234Z,99.99
2018-07-22T03:28:13.212Z,99.50
2018-07-22T03:29:13.211Z,99.99
2018-07-22T03:30:13.242Z,99.99
2018-07-22T03:31:13.225Z,99.99
2018-07-22T03:32:13.240Z,99.99
2018-07-22T03:33:13.224Z,99.99
2018-07-22T03:34:13.246Z,99.99
2018-07-22T03:35:13.259Z,99.99
2018-07-22T03:36:13.226Z,99.99
2018-07-22T03:37:13.271Z,99.99
2018-07-22T03:38:13.260Z,99.99
2018-07-22T03:39:13.260Z,99.21
2018-07-22T03:40:13.250Z,99.99
2018-07-22T03:41:13.283Z,99.99
2018-07-22T03:42:13.289Z,99.98
2018-07-22T03:43:13.248Z,99.99
2018-07-22T03:44:13.246Z,99.69
2018-07-22T03:45:13.274Z,99.50
2018-07-22T03:46:13.352Z,99.21
2018-07-22T03:47:13.363Z,99.69
2018-07-22T03:48:13.274Z,99.99
2018-07-22T03:49:13.274Z,99.99
2018-07-22T03:50:13.263Z,99.99
2018-07-22T03:51:13.290Z,99.99
2018-07-22T03:52:13.272Z,99.99
2018-07-22T03:53:13.276Z,99.99
2018-07-22T03:54:13.314Z,99.50
2018-07-22T03:55:13.281Z,99.30
2018-07-22T03:56:13.300Z,99.99
2018-07-22T03:57:13.289Z,99.99
2018-07-22T03:58:13.398Z,99.98
2018-07-22T03:59:13.293Z,99.30
2018-07-22T04:00:13.348Z,99.79
2018-07-22T04:02:34.366Z,99.99
2018-07-22T04:03:34.358Z,99.99
2018-07-22T04:04:34.383Z,99.99
2018-07-22T04:05:34.438Z,99.99
2018-07-22T04:06:34.364Z,99.99
2018-07-22T04:07:34.398Z,99.50
2018-07-22T04:08:34.363Z,99.99
2018-07-22T04:09:34.378Z,98.34
2018-07-22T04:10:34.392Z,98.72
2018-07-22T04:11:34.366Z,99.11
2018-07-22T04:12:34.393Z,99.50
2018-07-22T04:13:34.398Z,99.40
2018-07-22T04:14:34.376Z,98.92
2018-07-22T04:15:34.410Z,99.98
2018-07-22T04:16:34.443Z,98.24
2018-07-22T04:17:34.461Z,99.21
2018-07-22T04:18:34.417Z,99.84
2018-07-22T04:19:34.446Z,99.99
2018-07-22T04:20:34.396Z,99.64
2018-07-22T04:21:34.416Z,99.99
2018-07-22T04:22:34.438Z,99.99
2018-07-22T04:23:34.456Z,99.64
2018-07-22T04:24:34.429Z,99.44
2018-07-22T04:25:34.428Z,99.50
2018-07-22T04:26:34.445Z,99.99
2018-07-22T04:27:34.461Z,99.84
2018-07-22T04:28:34.447Z,99.99
2018-07-22T04:29:34.460Z,99.99
2018-07-22T04:30:34.431Z,99.99
2018-07-22T04:31:34.434Z,99.99
2018-07-22T04:32:34.436Z,99.99
2018-07-22T04:33:34.442Z,99.99
2018-07-22T04:34:34.473Z,99.84
2018-07-22T04:35:34.451Z,99.50
2018-07-22T04:36:34.444Z,99.59
2018-07-22T04:37:34.454Z,98.44
2018-07-22T04:38:34.471Z,97.76
2018-07-22T04:39:34.461Z,98.15
2018-07-22T04:40:34.490Z,98.44
2018-07-22T04:41:34.472Z,98.24
2018-07-22T04:42:34.474Z,98.34
2018-07-22T04:43:34.472Z,99.50
2018-07-22T04:44:34.541Z,99.84
2018-07-22T04:45:34.480Z,99.99
2018-07-22T04:46:34.495Z,99.99
2018-07-22T04:47:34.497Z,99.84
2018-07-22T04:48:34.511Z,99.99
2018-07-22T04:49:34.507Z,99.64
2018-07-22T04:50:34.499Z,99.11
2018-07-22T04:51:34.502Z,98.15
2018-07-22T04:52:34.522Z,97.86
2018-07-22T04:53:34.582Z,98.05
2018-07-22T04:54:34.523Z,99.64
2018-07-22T04:55:34.528Z,99.02
2018-07-22T04:56:34.538Z,99.11
2018-07-22T04:57:34.570Z,98.63
2018-07-22T04:58:34.539Z,99.26
2018-07-22T04:59:34.569Z,98.54
2018-07-22T05:00:34.531Z,98.34
2018-07-22T05:01:43.216Z,98.15
2018-07-22T05:03:27.964Z,97.96
2018-07-22T05:04:27.937Z,99.69
2018-07-22T05:05:27.955Z,98.24
2018-07-22T05:06:27.985Z,99.02
2018-07-22T05:07:27.943Z,98.24
2018-07-22T05:08:27.960Z,98.44
2018-07-22T05:10:57.715Z,98.05
2018-07-22T05:11:50.038Z,98.34
2018-07-22T05:12:50.050Z,99.59
2018-07-22T05:13:50.028Z,99.02
2018-07-22T05:14:50.006Z,97.86
2018-07-22T05:15:50.037Z,98.05
2018-07-22T05:16:50.011Z,98.34
2018-07-22T05:17:50.023Z,99.64
2018-07-22T05:18:50.032Z,99.93
2018-07-22T05:19:50.021Z,99.44
2018-07-22T05:20:50.034Z,99.50
2018-07-22T05:21:50.071Z,98.92
2018-07-22T05:22:50.043Z,99.84
2018-07-22T05:23:50.049Z,99.99
2018-07-22T05:24:50.077Z,99.11
2018-07-22T05:25:50.057Z,99.98
2018-07-22T05:26:50.040Z,99.69
2018-07-22T05:27:50.092Z,98.24
2018-07-22T05:28:50.078Z,98.82
2018-07-22T05:29:50.063Z,98.24
2018-07-22T05:30:50.061Z,98.24
2018-07-22T05:31:50.107Z,99.50
2018-07-22T05:32:50.065Z,99.50
2018-07-22T05:33:50.097Z,98.63
2018-07-22T05:34:50.083Z,99.59
2018-07-22T05:35:50.075Z,98.34
2018-07-22T05:36:50.115Z,99.88
2018-07-22T05:37:50.081Z,99.79
2018-07-22T05:38:50.087Z,99.30
2018-07-22T05:39:50.111Z,99.02
2018-07-22T05:40:50.101Z,97.86
2018-07-22T05:41:50.141Z,97.62
2018-07-22T05:42:50.132Z,97.62
2018-07-22T05:43:50.106Z,96.75
2018-07-22T05:44:50.138Z,97.04
2018-07-22T05:45:50.227Z,97.38
2018-07-22T05:46:50.179Z,97.72
2018-07-22T05:47:50.167Z,96.17
2018-07-22T05:48:50.198Z,96.17
2018-07-22T05:49:50.144Z,96.66
2018-07-22T05:50:50.126Z,95.89
2018-07-22T05:51:50.156Z,96.56
2018-07-22T05:52:50.153Z,97.14
2018-07-22T05:53:50.195Z,96.56
2018-07-22T05:54:50.225Z,97.67
2018-07-22T05:55:50.140Z,97.57
2018-07-22T05:56:50.382Z,97.52
2018-07-22T05:57:50.144Z,98.82
2018-07-22T05:58:50.148Z,98.24
2018-07-22T05:59:50.190Z,98.82
2018-07-22T06:00:50.181Z,99.88
2018-07-22T06:01:50.190Z,99.50
2018-07-22T06:02:50.198Z,97.86
2018-07-22T06:03:50.206Z,97.62
2018-07-22T06:04:50.211Z,96.37
2018-07-22T06:05:50.183Z,96.46
2018-07-22T06:06:50.186Z,96.37
2018-07-22T06:07:50.225Z,96.17
2018-07-22T06:08:50.190Z,96.17
2018-07-22T06:09:50.187Z,96.56
2018-07-22T06:10:50.193Z,96.17
2018-07-22T06:11:50.275Z,96.66
2018-07-22T06:12:50.228Z,95.69
2018-07-22T06:13:50.226Z,95.21
2018-07-22T06:14:50.210Z,95.89
2018-07-22T06:15:50.275Z,96.17
2018-07-22T06:16:50.259Z,96.75
2018-07-22T06:17:52.170Z,97.09
2018-07-22T06:18:50.222Z,97.38
2018-07-22T06:19:50.250Z,96.94
2018-07-22T06:20:50.269Z,96.94
2018-07-22T06:21:50.233Z,96.37
2018-07-22T06:22:58.969Z,98.05
2018-07-22T06:24:43.748Z,97.52
2018-07-22T06:25:43.733Z,96.85
2018-07-22T06:26:43.688Z,96.17
2018-07-22T06:27:43.743Z,97.42
2018-07-22T06:28:43.699Z,97.14
2018-07-22T06:29:43.701Z,97.14
2018-07-22T06:30:43.713Z,95.79
2018-07-22T06:31:43.721Z,95.64
2018-07-22T06:32:43.727Z,95.16
2018-07-22T06:33:43.732Z,95.54
2018-07-22T06:34:43.707Z,94.48
2018-07-22T06:35:43.718Z,94.20
2018-07-22T06:36:43.710Z,94.39
2018-07-22T06:37:43.723Z,93.62
2018-07-22T06:38:43.763Z,93.52
2018-07-22T06:39:43.716Z,93.81
2018-07-22T06:40:43.729Z,93.71
2018-07-22T06:41:43.762Z,92.89
2018-07-22T06:42:43.743Z,93.08
2018-07-22T06:43:43.740Z,92.41
2018-07-22T06:44:43.742Z,92.12
2018-07-22T06:45:43.747Z,92.12
2018-07-22T06:46:43.779Z,92.41
2018-07-22T06:47:43.774Z,91.83
2018-07-22T06:48:43.781Z,91.83
2018-07-22T06:49:43.770Z,91.83
2018-07-22T06:50:43.769Z,91.44
2018-07-22T06:51:43.803Z,91.25
2018-07-22T06:52:43.799Z,91.68
2018-07-22T06:53:43.789Z,91.64
2018-07-22T06:54:43.831Z,91.01
2018-07-22T06:55:44.058Z,90.81
2018-07-22T06:56:43.804Z,91.25
2018-07-22T06:57:43.821Z,91.20
2018-07-22T06:58:43.821Z,90.09
2018-07-22T06:59:43.803Z,90.00
2018-07-22T07:00:43.839Z,89.75
2018-07-22T07:01:51.199Z,90.19
2018-07-22T07:03:37.313Z,90.00
2018-07-22T07:04:37.233Z,92.02
2018-07-22T07:05:37.258Z,91.16
2018-07-22T07:06:37.263Z,90.00
2018-07-22T07:07:37.239Z,90.00
2018-07-22T07:08:38.799Z,89.47
2018-07-22T07:09:37.256Z,89.23
2018-07-22T07:10:37.246Z,89.03
2018-07-22T07:11:37.278Z,89.03
2018-07-22T07:12:37.253Z,88.93
2018-07-22T07:13:37.256Z,89.13
2018-07-22T07:14:37.289Z,88.79
2018-07-22T07:15:45.987Z,89.42
2018-07-22T07:17:39.763Z,89.42
2018-07-22T07:18:39.374Z,88.93
2018-07-22T07:20:24.101Z,88.69
2018-07-22T07:21:24.098Z,88.50
2018-07-22T07:22:24.296Z,88.59
2018-07-22T07:23:24.115Z,89.03
2018-07-22T07:24:24.113Z,89.81
2018-07-22T07:25:24.106Z,89.03
2018-07-22T07:26:24.102Z,89.27
2018-07-22T07:27:24.116Z,88.65
2018-07-22T07:28:24.138Z,88.75
2018-07-22T07:29:24.113Z,89.42
2018-07-22T07:30:24.137Z,88.93
2018-07-22T07:31:24.136Z,89.37
2018-07-22T07:32:24.135Z,88.79
2018-07-22T07:33:24.137Z,87.24
2018-07-22T07:34:24.211Z,88.07
2018-07-22T07:35:24.145Z,88.45
2018-07-22T07:36:24.148Z,88.45
2018-07-22T07:37:24.165Z,88.45
2018-07-22T07:38:24.157Z,88.93
2018-07-22T07:39:24.173Z,88.75
2018-07-22T07:40:32.794Z,88.69
2018-07-22T07:42:17.669Z,87.73
2018-07-22T07:43:17.580Z,87.24
2018-07-22T07:44:17.588Z,87.53
2018-07-22T07:45:17.585Z,88.11
2018-07-22T07:46:17.582Z,87.05
2018-07-22T07:47:17.615Z,87.15
2018-07-22T07:48:17.609Z,87.24
2018-07-22T07:49:17.632Z,86.86
2018-07-22T07:50:17.622Z,87.19
2018-07-22T07:51:17.623Z,87.38
2018-07-22T07:52:17.644Z,85.94
2018-07-22T07:53:17.645Z,85.84
2018-07-22T07:54:17.627Z,85.89
2018-07-22T07:55:17.636Z,86.47
2018-07-22T07:56:17.658Z,86.57
2018-07-22T07:57:17.657Z,86.28
2018-07-22T07:58:17.651Z,85.89
2018-07-22T07:59:17.650Z,86.13
2018-07-22T08:00:17.669Z,85.36
2018-07-22T08:01:17.732Z,84.58
2018-07-22T08:02:17.690Z,84.68
2018-07-22T08:03:17.697Z,84.39
2018-07-22T08:04:17.695Z,84.39
2018-07-22T08:05:17.726Z,84.58
2018-07-22T08:06:17.720Z,84.20
2018-07-22T08:07:17.719Z,84.58
2018-07-22T08:08:17.723Z,85.16
2018-07-22T08:09:17.716Z,84.68
2018-07-22T08:10:17.702Z,84.68
2018-07-22T08:11:17.726Z,84.97
2018-07-22T08:12:17.712Z,85.06
2018-07-22T08:13:17.742Z,84.97
2018-07-22T08:14:17.727Z,85.16
2018-07-22T08:15:17.755Z,85.36
2018-07-22T08:16:17.779Z,85.16
2018-07-22T08:17:17.737Z,84.78
2018-07-22T08:18:17.787Z,84.24
2018-07-22T08:19:17.772Z,84.05
2018-07-22T08:20:17.786Z,84.10
2018-07-22T08:21:17.815Z,83.85
2018-07-22T08:22:17.845Z,83.14
2018-07-22T08:23:17.840Z,83.27
2018-07-22T08:24:17.781Z,82.98
2018-07-22T08:25:17.786Z,82.65
2018-07-22T08:26:17.819Z,82.26
2018-07-22T08:27:17.806Z,82.98
2018-07-22T08:28:17.848Z,82.98
2018-07-22T08:29:17.868Z,82.79
2018-07-22T08:30:17.798Z,82.31
2018-07-22T08:31:17.841Z,81.53
2018-07-22T08:32:17.842Z,81.92
2018-07-22T08:33:17.830Z,81.92
2018-07-22T08:34:17.851Z,81.92
2018-07-22T08:35:17.835Z,82.21
2018-07-22T08:36:17.842Z,82.21
2018-07-22T08:37:17.871Z,82.60
2018-07-22T08:38:17.846Z,82.40
2018-07-22T08:39:17.875Z,81.92
2018-07-22T08:40:17.862Z,81.53
2018-07-22T08:41:17.916Z,81.53
2018-07-22T08:42:17.872Z,82.21
2018-07-22T08:43:17.885Z,82.60
2018-07-22T08:44:17.875Z,82.89
2018-07-22T08:45:17.882Z,82.21
2018-07-22T08:46:17.894Z,81.92
2018-07-22T08:47:17.892Z,81.53
2018-07-22T08:48:17.896Z,81.73
2018-07-22T08:49:17.924Z,81.63
2018-07-22T08:50:17.914Z,81.05
2018-07-22T08:51:17.914Z,80.86
2018-07-22T08:52:17.925Z,80.86
2018-07-22T08:53:18.021Z,80.66
2018-07-22T08:54:17.931Z,80.76
2018-07-22T08:55:17.958Z,80.95
2018-07-22T08:56:17.941Z,80.71
2018-07-22T08:57:17.948Z,81.15
2018-07-22T08:58:17.949Z,81.63
2018-07-22T08:59:17.957Z,81.53
2018-07-22T09:00:17.959Z,81.48
2018-07-22T09:01:17.993Z,81.77
2018-07-22T09:02:17.992Z,81.44
2018-07-22T09:03:17.981Z,81.09
2018-07-22T09:04:18.068Z,81.38
2018-07-22T09:05:18.055Z,80.80
2018-07-22T09:06:18.027Z,81.05
2018-07-22T09:07:18.016Z,80.99
2018-07-22T09:08:18.054Z,80.80
2018-07-22T09:09:18.054Z,80.32
2018-07-22T09:10:18.060Z,80.80
2018-07-22T09:11:18.099Z,80.22
2018-07-22T09:12:18.134Z,80.12
2018-07-22T09:13:18.041Z,81.09
2018-07-22T09:14:18.045Z,80.90
2018-07-22T09:15:18.099Z,80.80
2018-07-22T09:16:18.074Z,80.90
2018-07-22T09:17:18.128Z,80.32
2018-07-22T09:18:18.111Z,80.22
2018-07-22T09:19:18.090Z,79.97
2018-07-22T09:20:18.076Z,79.49
2018-07-22T09:21:18.137Z,79.00
2018-07-22T09:22:18.112Z,80.07
2018-07-22T09:23:18.098Z,79.35
2018-07-22T09:24:26.806Z,78.96
2018-07-22T09:26:19.193Z,79.25
2018-07-22T09:27:11.505Z,79.93
2018-07-22T09:28:11.507Z,79.83
2018-07-22T09:29:11.506Z,79.93
2018-07-22T09:30:11.525Z,79.83
2018-07-22T09:31:11.523Z,80.12
2018-07-22T09:32:11.552Z,79.29
2018-07-22T09:33:11.536Z,79.20
2018-07-22T09:34:11.544Z,79.10
2018-07-22T09:35:11.555Z,79.00
2018-07-22T09:36:11.662Z,78.91
2018-07-22T09:37:11.572Z,78.61
2018-07-22T09:38:11.591Z,78.23
2018-07-22T09:39:11.573Z,77.26
2018-07-22T09:40:11.570Z,78.13
2018-07-22T09:41:11.597Z,78.81
2018-07-22T09:42:11.587Z,78.42
2018-07-22T09:43:11.684Z,78.61
2018-07-22T09:44:11.602Z,78.13
2018-07-22T09:45:11.596Z,77.94
2018-07-22T09:46:11.604Z,77.84
2018-07-22T09:47:11.624Z,76.49
2018-07-22T09:48:11.671Z,75.43
2018-07-22T09:49:11.637Z,75.43
2018-07-22T09:50:11.630Z,75.81
2018-07-22T09:51:11.641Z,75.58
2018-07-22T09:52:11.671Z,76.78
2018-07-22T09:53:11.650Z,76.59
2018-07-22T09:54:11.662Z,75.33
2018-07-22T09:55:11.674Z,75.43
2018-07-22T09:56:11.677Z,75.33
2018-07-22T09:57:11.699Z,75.62
2018-07-22T09:58:11.701Z,75.62
2018-07-22T09:59:11.730Z,75.71
2018-07-22T10:00:11.689Z,75.33
2018-07-22T10:01:11.705Z,75.71
2018-07-22T10:02:11.702Z,75.52
2018-07-22T10:03:11.706Z,75.81
2018-07-22T10:04:11.715Z,75.65
2018-07-22T10:05:11.727Z,75.46
2018-07-22T10:06:11.745Z,74.98
2018-07-22T10:07:11.740Z,75.07
2018-07-22T10:08:11.771Z,74.98
2018-07-22T10:09:11.747Z,74.59
2018-07-22T10:10:11.753Z,74.79
2018-07-22T10:11:11.812Z,74.30
2018-07-22T10:12:11.778Z,74.11
2018-07-22T10:13:11.859Z,74.21
2018-07-22T10:14:11.830Z,74.40
2018-07-22T10:15:11.783Z,74.11
2018-07-22T10:16:11.781Z,74.40
2018-07-22T10:17:11.790Z,74.40
2018-07-22T10:18:11.796Z,74.30
2018-07-22T10:19:11.843Z,74.40
2018-07-22T10:21:32.723Z,75.37
